sensor_id;sensor_type;location;lat;lon;timestamp;P1;durP1;ratioP1;P2;durP2;ratioP2
75892;SDS011;64572;50.950;3.676;2022-12-18T00:01:05;72.95;;;34.38;;
75892;SDS011;64572;50.950;3.676;2022-12-18T00:03:40;64.53;;;29.23;;
75892;SDS011;64572;50.950;3.676;2022-12-18T00:06:06;74.35;;;31.98;;
75892;SDS011;64572;50.950;3.676;2022-12-18T00:08:31;68.57;;;31.83;;
75892;SDS011;64572;50.950;3.676;2022-12-18T00:11:07;68.15;;;30.95;;
75892;SDS011;64572;50.950;3.676;2022-12-18T00:13:34;63.65;;;27.40;;
75892;SDS011;64572;50.950;3.676;2022-12-18T00:16:03;73.22;;;31.00;;
75892;SDS011;64572;50.950;3.676;2022-12-18T00:18:31;81.18;;;34.97;;
75892;SDS011;64572;50.950;3.676;2022-12-18T00:21:00;70.65;;;31.60;;
75892;SDS011;64572;50.950;3.676;2022-12-18T00:23:28;70.80;;;30.95;;
75892;SDS011;64572;50.950;3.676;2022-12-18T00:25:54;63.70;;;27.25;;
75892;SDS011;64572;50.950;3.676;2022-12-18T00:28:20;61.67;;;26.80;;
75892;SDS011;64572;50.950;3.676;2022-12-18T00:30:45;71.60;;;29.77;;
75892;SDS011;64572;50.950;3.676;2022-12-18T00:33:11;74.88;;;29.50;;
75892;SDS011;64572;50.950;3.676;2022-12-18T00:35:37;78.40;;;32.42;;
75892;SDS011;64572;50.950;3.676;2022-12-18T00:38:02;72.85;;;30.73;;
75892;SDS011;64572;50.950;3.676;2022-12-18T00:40:28;77.28;;;32.90;;
75892;SDS011;64572;50.950;3.676;2022-12-18T00:42:54;74.57;;;29.67;;
75892;SDS011;64572;50.950;3.676;2022-12-18T00:45:23;80.03;;;32.38;;
75892;SDS011;64572;50.950;3.676;2022-12-18T00:47:53;93.22;;;34.10;;
75892;SDS011;64572;50.950;3.676;2022-12-18T00:50:20;94.57;;;34.28;;
75892;SDS011;64572;50.950;3.676;2022-12-18T00:52:46;104.97;;;40.08;;
75892;SDS011;64572;50.950;3.676;2022-12-18T00:55:11;98.55;;;37.17;;
75892;SDS011;64572;50.950;3.676;2022-12-18T00:57:37;76.10;;;29.67;;
75892;SDS011;64572;50.950;3.676;2022-12-18T01:00:04;80.32;;;32.28;;
75892;SDS011;64572;50.950;3.676;2022-12-18T01:04:57;88.20;;;33.40;;
75892;SDS011;64572;50.950;3.676;2022-12-18T01:07:22;80.00;;;32.08;;
75892;SDS011;64572;50.950;3.676;2022-12-18T01:09:48;86.40;;;31.92;;
75892;SDS011;64572;50.950;3.676;2022-12-18T01:12:14;77.65;;;29.77;;
75892;SDS011;64572;50.950;3.676;2022-12-18T01:14:39;76.65;;;30.83;;
75892;SDS011;64572;50.950;3.676;2022-12-18T01:17:05;76.85;;;30.30;;
75892;SDS011;64572;50.950;3.676;2022-12-18T01:19:34;83.05;;;31.52;;
75892;SDS011;64572;50.950;3.676;2022-12-18T01:22:02;75.85;;;29.70;;
75892;SDS011;64572;50.950;3.676;2022-12-18T01:24:28;82.45;;;33.03;;
75892;SDS011;64572;50.950;3.676;2022-12-18T01:26:56;75.75;;;31.92;;
75892;SDS011;64572;50.950;3.676;2022-12-18T01:29:22;77.90;;;32.08;;
75892;SDS011;64572;50.950;3.676;2022-12-18T01:31:48;88.75;;;31.40;;
75892;SDS011;64572;50.950;3.676;2022-12-18T01:34:14;79.30;;;29.42;;
75892;SDS011;64572;50.950;3.676;2022-12-18T01:36:40;79.78;;;30.40;;
75892;SDS011;64572;50.950;3.676;2022-12-18T01:39:07;74.45;;;28.75;;
75892;SDS011;64572;50.950;3.676;2022-12-18T01:41:35;73.35;;;27.85;;
75892;SDS011;64572;50.950;3.676;2022-12-18T01:50:13;64.82;;;25.92;;
75892;SDS011;64572;50.950;3.676;2022-12-18T01:52:50;62.78;;;26.42;;
75892;SDS011;64572;50.950;3.676;2022-12-18T01:55:22;69.85;;;28.60;;
75892;SDS011;64572;50.950;3.676;2022-12-18T01:57:54;67.85;;;28.15;;
75892;SDS011;64572;50.950;3.676;2022-12-18T02:00:23;75.40;;;29.75;;
75892;SDS011;64572;50.950;3.676;2022-12-18T02:02:49;55.50;;;22.23;;
75892;SDS011;64572;50.950;3.676;2022-12-18T02:05:16;66.00;;;26.10;;
75892;SDS011;64572;50.950;3.676;2022-12-18T02:08:00;59.83;;;25.45;;
75892;SDS011;64572;50.950;3.676;2022-12-18T02:13:32;79.70;;;33.38;;
75892;SDS011;64572;50.950;3.676;2022-12-18T02:18:56;56.83;;;20.42;;
75892;SDS011;64572;50.950;3.676;2022-12-18T02:26:50;68.15;;;24.30;;
75892;SDS011;64572;50.950;3.676;2022-12-18T02:29:24;62.20;;;24.90;;
75892;SDS011;64572;50.950;3.676;2022-12-18T02:31:55;67.75;;;26.88;;
75892;SDS011;64572;50.950;3.676;2022-12-18T02:34:24;67.97;;;25.98;;
75892;SDS011;64572;50.950;3.676;2022-12-18T02:36:53;64.63;;;25.95;;
75892;SDS011;64572;50.950;3.676;2022-12-18T02:39:20;63.83;;;26.25;;
75892;SDS011;64572;50.950;3.676;2022-12-18T02:41:47;56.00;;;25.63;;
75892;SDS011;64572;50.950;3.676;2022-12-18T02:44:13;60.85;;;24.35;;
75892;SDS011;64572;50.950;3.676;2022-12-18T02:46:41;67.35;;;26.23;;
75892;SDS011;64572;50.950;3.676;2022-12-18T02:54:10;59.00;;;24.77;;
75892;SDS011;64572;50.950;3.676;2022-12-18T02:56:50;63.47;;;25.63;;
75892;SDS011;64572;50.950;3.676;2022-12-18T02:59:20;63.17;;;26.63;;
75892;SDS011;64572;50.950;3.676;2022-12-18T03:02:04;60.70;;;25.05;;
75892;SDS011;64572;50.950;3.676;2022-12-18T03:07:18;54.63;;;24.27;;
75892;SDS011;64572;50.950;3.676;2022-12-18T03:09:52;54.63;;;23.05;;
75892;SDS011;64572;50.950;3.676;2022-12-18T03:12:27;57.63;;;24.73;;
75892;SDS011;64572;50.950;3.676;2022-12-18T03:15:13;55.92;;;21.77;;
75892;SDS011;64572;50.950;3.676;2022-12-18T03:17:55;57.05;;;21.08;;
75892;SDS011;64572;50.950;3.676;2022-12-18T03:22:57;50.17;;;21.05;;
75892;SDS011;64572;50.950;3.676;2022-12-18T03:25:27;54.35;;;21.35;;
75892;SDS011;64572;50.950;3.676;2022-12-18T03:27:55;50.70;;;20.75;;
75892;SDS011;64572;50.950;3.676;2022-12-18T03:30:23;53.10;;;21.67;;
75892;SDS011;64572;50.950;3.676;2022-12-18T03:32:53;56.53;;;24.52;;
75892;SDS011;64572;50.950;3.676;2022-12-18T03:35:37;57.08;;;23.58;;
75892;SDS011;64572;50.950;3.676;2022-12-18T03:38:05;55.45;;;23.33;;
75892;SDS011;64572;50.950;3.676;2022-12-18T03:40:33;60.47;;;24.30;;
75892;SDS011;64572;50.950;3.676;2022-12-18T03:43:06;66.18;;;26.23;;
75892;SDS011;64572;50.950;3.676;2022-12-18T03:45:42;50.08;;;21.05;;
75892;SDS011;64572;50.950;3.676;2022-12-18T03:51:10;59.53;;;24.05;;
75892;SDS011;64572;50.950;3.676;2022-12-18T03:53:46;61.58;;;24.73;;
75892;SDS011;64572;50.950;3.676;2022-12-18T03:56:14;50.95;;;21.42;;
75892;SDS011;64572;50.950;3.676;2022-12-18T04:01:12;55.28;;;19.60;;
75892;SDS011;64572;50.950;3.676;2022-12-18T04:03:42;57.30;;;21.73;;
75892;SDS011;64572;50.950;3.676;2022-12-18T04:06:14;54.53;;;19.63;;
75892;SDS011;64572;50.950;3.676;2022-12-18T04:08:41;45.88;;;17.92;;
75892;SDS011;64572;50.950;3.676;2022-12-18T04:11:07;48.42;;;19.77;;
75892;SDS011;64572;50.950;3.676;2022-12-18T04:13:36;54.42;;;23.27;;
75892;SDS011;64572;50.950;3.676;2022-12-18T04:16:02;50.47;;;19.25;;
75892;SDS011;64572;50.950;3.676;2022-12-18T04:18:28;33.90;;;14.32;;
75892;SDS011;64572;50.950;3.676;2022-12-18T04:20:54;53.50;;;19.73;;
75892;SDS011;64572;50.950;3.676;2022-12-18T04:23:20;51.08;;;21.48;;
75892;SDS011;64572;50.950;3.676;2022-12-18T04:25:46;63.47;;;24.67;;
75892;SDS011;64572;50.950;3.676;2022-12-18T04:28:12;65.32;;;24.95;;
75892;SDS011;64572;50.950;3.676;2022-12-18T04:30:38;55.90;;;22.08;;
75892;SDS011;64572;50.950;3.676;2022-12-18T04:33:03;60.08;;;25.73;;
75892;SDS011;64572;50.950;3.676;2022-12-18T04:35:33;69.85;;;27.20;;
75892;SDS011;64572;50.950;3.676;2022-12-18T04:37:58;56.60;;;23.40;;
75892;SDS011;64572;50.950;3.676;2022-12-18T04:40:24;62.20;;;25.90;;
75892;SDS011;64572;50.950;3.676;2022-12-18T04:42:49;57.50;;;25.35;;
75892;SDS011;64572;50.950;3.676;2022-12-18T04:45:15;62.63;;;26.35;;
75892;SDS011;64572;50.950;3.676;2022-12-18T04:47:41;57.08;;;22.83;;
75892;SDS011;64572;50.950;3.676;2022-12-18T04:50:07;57.50;;;24.90;;
75892;SDS011;64572;50.950;3.676;2022-12-18T04:52:41;52.60;;;23.50;;
75892;SDS011;64572;50.950;3.676;2022-12-18T04:55:07;56.20;;;23.92;;
75892;SDS011;64572;50.950;3.676;2022-12-18T04:57:33;54.22;;;22.83;;
75892;SDS011;64572;50.950;3.676;2022-12-18T05:00:01;55.42;;;22.85;;
75892;SDS011;64572;50.950;3.676;2022-12-18T05:02:27;65.05;;;27.60;;
75892;SDS011;64572;50.950;3.676;2022-12-18T05:04:53;60.40;;;25.48;;
75892;SDS011;64572;50.950;3.676;2022-12-18T05:07:19;56.55;;;25.80;;
75892;SDS011;64572;50.950;3.676;2022-12-18T05:09:44;58.85;;;24.15;;
75892;SDS011;64572;50.950;3.676;2022-12-18T05:12:10;56.92;;;24.80;;
75892;SDS011;64572;50.950;3.676;2022-12-18T05:14:36;54.10;;;23.85;;
75892;SDS011;64572;50.950;3.676;2022-12-18T05:17:01;55.90;;;20.70;;
75892;SDS011;64572;50.950;3.676;2022-12-18T05:19:27;60.78;;;25.48;;
75892;SDS011;64572;50.950;3.676;2022-12-18T05:21:52;60.70;;;25.75;;
75892;SDS011;64572;50.950;3.676;2022-12-18T05:24:18;55.53;;;24.50;;
75892;SDS011;64572;50.950;3.676;2022-12-18T05:26:44;57.40;;;24.33;;
75892;SDS011;64572;50.950;3.676;2022-12-18T05:29:09;57.10;;;24.80;;
75892;SDS011;64572;50.950;3.676;2022-12-18T05:31:37;62.00;;;26.77;;
75892;SDS011;64572;50.950;3.676;2022-12-18T05:34:03;59.92;;;25.45;;
75892;SDS011;64572;50.950;3.676;2022-12-18T05:36:29;60.03;;;25.75;;
75892;SDS011;64572;50.950;3.676;2022-12-18T05:38:55;57.10;;;23.70;;
75892;SDS011;64572;50.950;3.676;2022-12-18T05:41:24;50.03;;;23.08;;
75892;SDS011;64572;50.950;3.676;2022-12-18T05:43:50;54.13;;;24.10;;
75892;SDS011;64572;50.950;3.676;2022-12-18T05:46:16;54.17;;;23.90;;
75892;SDS011;64572;50.950;3.676;2022-12-18T05:48:45;53.50;;;22.48;;
75892;SDS011;64572;50.950;3.676;2022-12-18T05:51:12;49.42;;;22.77;;
75892;SDS011;64572;50.950;3.676;2022-12-18T05:56:07;49.35;;;21.65;;
75892;SDS011;64572;50.950;3.676;2022-12-18T05:58:34;55.53;;;22.00;;
75892;SDS011;64572;50.950;3.676;2022-12-18T06:01:33;49.47;;;21.65;;
75892;SDS011;64572;50.950;3.676;2022-12-18T06:03:52;50.92;;;22.80;;
75892;SDS011;64572;50.950;3.676;2022-12-18T06:06:20;51.67;;;21.92;;
75892;SDS011;64572;50.950;3.676;2022-12-18T06:08:47;51.33;;;22.60;;
75892;SDS011;64572;50.950;3.676;2022-12-18T06:11:16;55.80;;;23.38;;
75892;SDS011;64572;50.950;3.676;2022-12-18T06:13:43;45.50;;;19.85;;
75892;SDS011;64572;50.950;3.676;2022-12-18T06:16:09;57.95;;;23.95;;
75892;SDS011;64572;50.950;3.676;2022-12-18T06:18:34;58.60;;;22.70;;
75892;SDS011;64572;50.950;3.676;2022-12-18T06:21:03;63.33;;;22.45;;
75892;SDS011;64572;50.950;3.676;2022-12-18T06:23:29;54.20;;;23.15;;
75892;SDS011;64572;50.950;3.676;2022-12-18T06:25:54;53.85;;;23.55;;
75892;SDS011;64572;50.950;3.676;2022-12-18T06:28:20;50.72;;;21.00;;
75892;SDS011;64572;50.950;3.676;2022-12-18T06:30:49;53.33;;;24.67;;
75892;SDS011;64572;50.950;3.676;2022-12-18T06:33:18;51.65;;;23.23;;
75892;SDS011;64572;50.950;3.676;2022-12-18T06:35:44;57.28;;;22.50;;
75892;SDS011;64572;50.950;3.676;2022-12-18T06:38:09;51.42;;;22.75;;
75892;SDS011;64572;50.950;3.676;2022-12-18T06:40:38;54.17;;;23.50;;
75892;SDS011;64572;50.950;3.676;2022-12-18T06:43:04;50.58;;;22.80;;
75892;SDS011;64572;50.950;3.676;2022-12-18T06:45:30;55.85;;;24.60;;
75892;SDS011;64572;50.950;3.676;2022-12-18T06:47:59;53.42;;;23.70;;
75892;SDS011;64572;50.950;3.676;2022-12-18T06:50:27;51.05;;;21.55;;
75892;SDS011;64572;50.950;3.676;2022-12-18T06:52:53;45.78;;;20.10;;
75892;SDS011;64572;50.950;3.676;2022-12-18T06:55:19;48.45;;;19.80;;
75892;SDS011;64572;50.950;3.676;2022-12-18T06:57:44;49.03;;;22.60;;
75892;SDS011;64572;50.950;3.676;2022-12-18T07:00:10;54.28;;;21.85;;
75892;SDS011;64572;50.950;3.676;2022-12-18T07:02:36;56.90;;;23.98;;
75892;SDS011;64572;50.950;3.676;2022-12-18T07:05:02;53.33;;;24.75;;
75892;SDS011;64572;50.950;3.676;2022-12-18T07:07:28;56.70;;;25.58;;
75892;SDS011;64572;50.950;3.676;2022-12-18T07:09:54;50.75;;;22.98;;
75892;SDS011;64572;50.950;3.676;2022-12-18T07:12:19;60.17;;;23.67;;
75892;SDS011;64572;50.950;3.676;2022-12-18T07:14:45;69.47;;;26.92;;
75892;SDS011;64572;50.950;3.676;2022-12-18T07:17:11;57.25;;;23.85;;
75892;SDS011;64572;50.950;3.676;2022-12-18T07:19:37;72.18;;;27.98;;
75892;SDS011;64572;50.950;3.676;2022-12-18T07:22:02;63.08;;;26.63;;
75892;SDS011;64572;50.950;3.676;2022-12-18T07:24:28;62.03;;;27.98;;
75892;SDS011;64572;50.950;3.676;2022-12-18T07:26:54;56.30;;;25.17;;
75892;SDS011;64572;50.950;3.676;2022-12-18T07:29:19;55.30;;;24.08;;
75892;SDS011;64572;50.950;3.676;2022-12-18T07:31:45;53.13;;;22.40;;
75892;SDS011;64572;50.950;3.676;2022-12-18T07:34:11;55.53;;;24.05;;
75892;SDS011;64572;50.950;3.676;2022-12-18T07:36:37;61.20;;;26.20;;
75892;SDS011;64572;50.950;3.676;2022-12-18T07:39:03;58.30;;;24.17;;
75892;SDS011;64572;50.950;3.676;2022-12-18T07:41:28;52.20;;;23.83;;
75892;SDS011;64572;50.950;3.676;2022-12-18T07:43:54;48.40;;;20.38;;
75892;SDS011;64572;50.950;3.676;2022-12-18T07:46:20;47.33;;;22.00;;
75892;SDS011;64572;50.950;3.676;2022-12-18T07:48:45;56.15;;;23.80;;
75892;SDS011;64572;50.950;3.676;2022-12-18T07:51:11;57.10;;;24.95;;
75892;SDS011;64572;50.950;3.676;2022-12-18T07:53:37;56.45;;;24.65;;
75892;SDS011;64572;50.950;3.676;2022-12-18T07:56:05;63.90;;;27.90;;
75892;SDS011;64572;50.950;3.676;2022-12-18T07:58:32;61.25;;;27.25;;
75892;SDS011;64572;50.950;3.676;2022-12-18T08:01:02;57.10;;;24.30;;
75892;SDS011;64572;50.950;3.676;2022-12-18T08:03:33;57.30;;;25.30;;
75892;SDS011;64572;50.950;3.676;2022-12-18T08:06:02;67.03;;;28.35;;
75892;SDS011;64572;50.950;3.676;2022-12-18T08:08:29;58.83;;;26.45;;
75892;SDS011;64572;50.950;3.676;2022-12-18T08:10:56;55.70;;;25.58;;
75892;SDS011;64572;50.950;3.676;2022-12-18T08:13:22;60.47;;;28.75;;
75892;SDS011;64572;50.950;3.676;2022-12-18T08:15:56;57.13;;;23.90;;
75892;SDS011;64572;50.950;3.676;2022-12-18T08:18:25;44.03;;;18.88;;
75892;SDS011;64572;50.950;3.676;2022-12-18T08:20:51;68.03;;;29.20;;
75892;SDS011;64572;50.950;3.676;2022-12-18T08:23:17;67.60;;;28.17;;
75892;SDS011;64572;50.950;3.676;2022-12-18T08:25:43;78.28;;;36.45;;
75892;SDS011;64572;50.950;3.676;2022-12-18T08:28:09;75.88;;;33.85;;
75892;SDS011;64572;50.950;3.676;2022-12-18T08:30:35;70.28;;;31.65;;
75892;SDS011;64572;50.950;3.676;2022-12-18T08:33:00;60.33;;;26.60;;
75892;SDS011;64572;50.950;3.676;2022-12-18T08:35:26;54.67;;;25.50;;
75892;SDS011;64572;50.950;3.676;2022-12-18T08:37:52;46.50;;;21.08;;
75892;SDS011;64572;50.950;3.676;2022-12-18T08:40:17;41.88;;;19.20;;
75892;SDS011;64572;50.950;3.676;2022-12-18T08:42:43;39.10;;;19.27;;
75892;SDS011;64572;50.950;3.676;2022-12-18T08:45:27;56.42;;;24.98;;
75892;SDS011;64572;50.950;3.676;2022-12-18T08:47:53;56.65;;;27.23;;
75892;SDS011;64572;50.950;3.676;2022-12-18T08:50:19;67.28;;;34.65;;
75892;SDS011;64572;50.950;3.676;2022-12-18T08:52:45;53.45;;;24.90;;
75892;SDS011;64572;50.950;3.676;2022-12-18T08:55:11;53.03;;;25.42;;
75892;SDS011;64572;50.950;3.676;2022-12-18T08:57:36;51.72;;;25.65;;
75892;SDS011;64572;50.950;3.676;2022-12-18T09:00:03;50.70;;;23.35;;
75892;SDS011;64572;50.950;3.676;2022-12-18T09:02:29;54.65;;;23.73;;
75892;SDS011;64572;50.950;3.676;2022-12-18T09:04:55;52.53;;;23.00;;
75892;SDS011;64572;50.950;3.676;2022-12-18T09:07:20;58.28;;;23.13;;
75892;SDS011;64572;50.950;3.676;2022-12-18T09:09:46;62.75;;;24.20;;
75892;SDS011;64572;50.950;3.676;2022-12-18T09:12:12;58.42;;;22.95;;
75892;SDS011;64572;50.950;3.676;2022-12-18T09:14:38;48.13;;;22.38;;
75892;SDS011;64572;50.950;3.676;2022-12-18T09:17:04;43.78;;;21.42;;
75892;SDS011;64572;50.950;3.676;2022-12-18T09:19:29;51.90;;;22.40;;
75892;SDS011;64572;50.950;3.676;2022-12-18T09:21:56;51.53;;;22.95;;
75892;SDS011;64572;50.950;3.676;2022-12-18T09:24:21;49.42;;;22.00;;
75892;SDS011;64572;50.950;3.676;2022-12-18T09:26:47;46.47;;;20.90;;
75892;SDS011;64572;50.950;3.676;2022-12-18T09:29:13;44.83;;;21.17;;
75892;SDS011;64572;50.950;3.676;2022-12-18T09:31:39;45.20;;;21.55;;
75892;SDS011;64572;50.950;3.676;2022-12-18T09:34:05;52.90;;;26.23;;
75892;SDS011;64572;50.950;3.676;2022-12-18T09:36:31;58.97;;;24.60;;
75892;SDS011;64572;50.950;3.676;2022-12-18T09:38:57;49.13;;;26.70;;
75892;SDS011;64572;50.950;3.676;2022-12-18T09:41:34;50.72;;;26.88;;
75892;SDS011;64572;50.950;3.676;2022-12-18T09:44:26;65.70;;;29.13;;
75892;SDS011;64572;50.950;3.676;2022-12-18T09:49:58;65.10;;;25.17;;
75892;SDS011;64572;50.950;3.676;2022-12-18T09:52:43;41.95;;;16.90;;
75892;SDS011;64572;50.950;3.676;2022-12-18T09:55:30;32.08;;;14.77;;
75892;SDS011;64572;50.950;3.676;2022-12-18T09:58:10;33.95;;;13.77;;
75892;SDS011;64572;50.950;3.676;2022-12-18T10:00:38;31.58;;;13.95;;
75892;SDS011;64572;50.950;3.676;2022-12-18T10:03:10;25.38;;;12.43;;
75892;SDS011;64572;50.950;3.676;2022-12-18T10:05:43;25.00;;;12.95;;
75892;SDS011;64572;50.950;3.676;2022-12-18T10:08:39;28.17;;;13.65;;
75892;SDS011;64572;50.950;3.676;2022-12-18T10:14:02;30.88;;;14.88;;
75892;SDS011;64572;50.950;3.676;2022-12-18T10:20:12;34.10;;;15.20;;
75892;SDS011;64572;50.950;3.676;2022-12-18T10:25:36;27.88;;;13.80;;
75892;SDS011;64572;50.950;3.676;2022-12-18T10:28:12;27.42;;;13.68;;
75892;SDS011;64572;50.950;3.676;2022-12-18T10:30:40;30.88;;;13.23;;
75892;SDS011;64572;50.950;3.676;2022-12-18T10:33:17;33.45;;;14.50;;
75892;SDS011;64572;50.950;3.676;2022-12-18T10:35:44;28.70;;;13.32;;
75892;SDS011;64572;50.950;3.676;2022-12-18T10:40:57;31.27;;;14.20;;
75892;SDS011;64572;50.950;3.676;2022-12-18T10:45:59;29.27;;;12.75;;
75892;SDS011;64572;50.950;3.676;2022-12-18T10:48:28;30.67;;;13.20;;
75892;SDS011;64572;50.950;3.676;2022-12-18T10:50:55;30.23;;;13.25;;
75892;SDS011;64572;50.950;3.676;2022-12-18T10:53:23;30.30;;;13.68;;
75892;SDS011;64572;50.950;3.676;2022-12-18T10:55:54;30.65;;;13.68;;
75892;SDS011;64572;50.950;3.676;2022-12-18T11:01:02;32.28;;;14.48;;
75892;SDS011;64572;50.950;3.676;2022-12-18T11:03:35;36.10;;;15.15;;
75892;SDS011;64572;50.950;3.676;2022-12-18T11:06:08;28.40;;;14.52;;
75892;SDS011;64572;50.950;3.676;2022-12-18T11:08:39;30.85;;;15.40;;
75892;SDS011;64572;50.950;3.676;2022-12-18T11:11:25;32.50;;;15.85;;
75892;SDS011;64572;50.950;3.676;2022-12-18T11:14:05;29.48;;;15.00;;
75892;SDS011;64572;50.950;3.676;2022-12-18T11:16:42;32.35;;;14.25;;
75892;SDS011;64572;50.950;3.676;2022-12-18T11:19:28;34.10;;;15.32;;
75892;SDS011;64572;50.950;3.676;2022-12-18T11:22:22;31.42;;;14.57;;
75892;SDS011;64572;50.950;3.676;2022-12-18T11:25:38;30.13;;;15.13;;
75892;SDS011;64572;50.950;3.676;2022-12-18T11:27:49;34.05;;;15.80;;
75892;SDS011;64572;50.950;3.676;2022-12-18T11:32:49;34.22;;;15.55;;
75892;SDS011;64572;50.950;3.676;2022-12-18T11:35:19;33.70;;;15.95;;
75892;SDS011;64572;50.950;3.676;2022-12-18T11:37:59;35.08;;;15.23;;
75892;SDS011;64572;50.950;3.676;2022-12-18T11:40:33;31.65;;;15.63;;
75892;SDS011;64572;50.950;3.676;2022-12-18T11:43:04;33.33;;;16.42;;
75892;SDS011;64572;50.950;3.676;2022-12-18T11:45:36;32.80;;;16.58;;
75892;SDS011;64572;50.950;3.676;2022-12-18T11:48:18;35.65;;;17.30;;
75892;SDS011;64572;50.950;3.676;2022-12-18T11:50:53;34.03;;;17.05;;
75892;SDS011;64572;50.950;3.676;2022-12-18T11:53:20;33.58;;;17.10;;
75892;SDS011;64572;50.950;3.676;2022-12-18T11:55:49;32.42;;;17.15;;
75892;SDS011;64572;50.950;3.676;2022-12-18T11:58:46;38.60;;;17.23;;
75892;SDS011;64572;50.950;3.676;2022-12-18T12:18:33;34.55;;;17.02;;
75892;SDS011;64572;50.950;3.676;2022-12-18T12:30:10;43.17;;;21.70;;
75892;SDS011;64572;50.950;3.676;2022-12-18T12:40:39;45.65;;;21.55;;
75892;SDS011;64572;50.950;3.676;2022-12-18T12:43:21;45.40;;;23.88;;
75892;SDS011;64572;50.950;3.676;2022-12-18T12:45:52;41.65;;;20.90;;
75892;SDS011;64572;50.950;3.676;2022-12-18T12:48:26;45.83;;;21.63;;
75892;SDS011;64572;50.950;3.676;2022-12-18T12:50:52;45.60;;;22.00;;
75892;SDS011;64572;50.950;3.676;2022-12-18T12:53:25;36.00;;;17.45;;
75892;SDS011;64572;50.950;3.676;2022-12-18T12:55:55;43.40;;;22.20;;
75892;SDS011;64572;50.950;3.676;2022-12-18T13:01:08;42.05;;;20.80;;
75892;SDS011;64572;50.950;3.676;2022-12-18T13:06:29;46.60;;;22.65;;
75892;SDS011;64572;50.950;3.676;2022-12-18T13:09:04;48.15;;;21.63;;
75892;SDS011;64572;50.950;3.676;2022-12-18T13:11:31;47.17;;;22.05;;
75892;SDS011;64572;50.950;3.676;2022-12-18T13:14:31;52.15;;;23.63;;
75892;SDS011;64572;50.950;3.676;2022-12-18T13:17:23;46.45;;;20.15;;
75892;SDS011;64572;50.950;3.676;2022-12-18T13:20:10;46.75;;;22.90;;
75892;SDS011;64572;50.950;3.676;2022-12-18T13:22:40;49.47;;;22.65;;
75892;SDS011;64572;50.950;3.676;2022-12-18T13:25:28;53.47;;;24.00;;
75892;SDS011;64572;50.950;3.676;2022-12-18T13:28:11;47.95;;;23.00;;
75892;SDS011;64572;50.950;3.676;2022-12-18T13:30:56;49.38;;;23.23;;
75892;SDS011;64572;50.950;3.676;2022-12-18T13:38:39;52.67;;;23.45;;
75892;SDS011;64572;50.950;3.676;2022-12-18T13:44:10;50.80;;;24.45;;
75892;SDS011;64572;50.950;3.676;2022-12-18T13:46:55;49.75;;;23.05;;
75892;SDS011;64572;50.950;3.676;2022-12-18T13:49:38;45.63;;;21.45;;
75892;SDS011;64572;50.950;3.676;2022-12-18T13:52:15;44.60;;;18.20;;
75892;SDS011;64572;50.950;3.676;2022-12-18T13:54:59;52.97;;;23.95;;
75892;SDS011;64572;50.950;3.676;2022-12-18T13:57:33;52.28;;;24.70;;
75892;SDS011;64572;50.950;3.676;2022-12-18T14:00:17;54.88;;;24.42;;
75892;SDS011;64572;50.950;3.676;2022-12-18T14:02:49;40.42;;;19.20;;
75892;SDS011;64572;50.950;3.676;2022-12-18T14:05:25;43.28;;;17.75;;
75892;SDS011;64572;50.950;3.676;2022-12-18T14:08:00;56.25;;;25.52;;
75892;SDS011;64572;50.950;3.676;2022-12-18T14:10:29;54.08;;;24.45;;
75892;SDS011;64572;50.950;3.676;2022-12-18T14:12:55;52.15;;;23.20;;
75892;SDS011;64572;50.950;3.676;2022-12-18T14:20:48;54.83;;;26.73;;
75892;SDS011;64572;50.950;3.676;2022-12-18T14:26:18;53.58;;;24.83;;
75892;SDS011;64572;50.950;3.676;2022-12-18T14:28:54;55.80;;;25.25;;
75892;SDS011;64572;50.950;3.676;2022-12-18T14:31:24;52.42;;;24.23;;
75892;SDS011;64572;50.950;3.676;2022-12-18T14:33:51;53.05;;;24.25;;
75892;SDS011;64572;50.950;3.676;2022-12-18T14:36:19;54.88;;;24.60;;
75892;SDS011;64572;50.950;3.676;2022-12-18T14:38:53;56.83;;;24.77;;
75892;SDS011;64572;50.950;3.676;2022-12-18T14:41:21;49.88;;;21.75;;
75892;SDS011;64572;50.950;3.676;2022-12-18T14:43:48;54.45;;;24.10;;
75892;SDS011;64572;50.950;3.676;2022-12-18T14:49:01;57.88;;;25.05;;
75892;SDS011;64572;50.950;3.676;2022-12-18T14:51:50;52.35;;;24.50;;
75892;SDS011;64572;50.950;3.676;2022-12-18T14:54:19;54.72;;;24.05;;
75892;SDS011;64572;50.950;3.676;2022-12-18T14:56:46;55.47;;;24.20;;
75892;SDS011;64572;50.950;3.676;2022-12-18T14:59:17;52.95;;;24.27;;
75892;SDS011;64572;50.950;3.676;2022-12-18T15:01:49;55.97;;;24.42;;
75892;SDS011;64572;50.950;3.676;2022-12-18T15:04:36;53.30;;;23.77;;
75892;SDS011;64572;50.950;3.676;2022-12-18T15:09:35;56.13;;;25.00;;
75892;SDS011;64572;50.950;3.676;2022-12-18T15:12:02;50.40;;;24.17;;
75892;SDS011;64572;50.950;3.676;2022-12-18T15:17:05;52.35;;;24.88;;
75892;SDS011;64572;50.950;3.676;2022-12-18T15:19:40;54.28;;;25.15;;
75892;SDS011;64572;50.950;3.676;2022-12-18T15:22:18;56.58;;;24.85;;
75892;SDS011;64572;50.950;3.676;2022-12-18T15:24:46;58.33;;;24.30;;
75892;SDS011;64572;50.950;3.676;2022-12-18T15:27:45;52.45;;;24.33;;
75892;SDS011;64572;50.950;3.676;2022-12-18T15:32:39;55.42;;;23.10;;
75892;SDS011;64572;50.950;3.676;2022-12-18T15:37:36;57.38;;;25.73;;
75892;SDS011;64572;50.950;3.676;2022-12-18T15:40:03;44.00;;;18.20;;
75892;SDS011;64572;50.950;3.676;2022-12-18T15:42:29;49.90;;;23.42;;
75892;SDS011;64572;50.950;3.676;2022-12-18T15:45:13;50.78;;;24.40;;
75892;SDS011;64572;50.950;3.676;2022-12-18T15:47:39;51.40;;;21.77;;
75892;SDS011;64572;50.950;3.676;2022-12-18T15:50:07;40.60;;;18.20;;
75892;SDS011;64572;50.950;3.676;2022-12-18T15:52:36;52.08;;;23.30;;
75892;SDS011;64572;50.950;3.676;2022-12-18T15:55:05;59.65;;;24.00;;
75892;SDS011;64572;50.950;3.676;2022-12-18T15:57:58;47.85;;;22.90;;
75892;SDS011;64572;50.950;3.676;2022-12-18T16:00:23;50.92;;;23.85;;
75892;SDS011;64572;50.950;3.676;2022-12-18T16:02:49;55.40;;;24.23;;
75892;SDS011;64572;50.950;3.676;2022-12-18T16:05:16;50.55;;;22.33;;
75892;SDS011;64572;50.950;3.676;2022-12-18T16:07:43;50.72;;;19.13;;
75892;SDS011;64572;50.950;3.676;2022-12-18T16:10:09;53.08;;;22.98;;
75892;SDS011;64572;50.950;3.676;2022-12-18T16:12:35;51.85;;;23.23;;
75892;SDS011;64572;50.950;3.676;2022-12-18T16:15:01;57.70;;;23.65;;
75892;SDS011;64572;50.950;3.676;2022-12-18T16:17:28;54.03;;;22.67;;
75892;SDS011;64572;50.950;3.676;2022-12-18T16:19:54;53.47;;;23.70;;
75892;SDS011;64572;50.950;3.676;2022-12-18T16:22:23;51.80;;;22.67;;
75892;SDS011;64572;50.950;3.676;2022-12-18T16:24:51;51.33;;;22.25;;
75892;SDS011;64572;50.950;3.676;2022-12-18T16:27:18;51.17;;;23.50;;
75892;SDS011;64572;50.950;3.676;2022-12-18T16:29:44;53.95;;;24.77;;
75892;SDS011;64572;50.950;3.676;2022-12-18T16:32:14;52.47;;;23.45;;
75892;SDS011;64572;50.950;3.676;2022-12-18T16:34:44;59.95;;;24.88;;
75892;SDS011;64572;50.950;3.676;2022-12-18T16:37:11;51.83;;;22.95;;
75892;SDS011;64572;50.950;3.676;2022-12-18T16:39:38;36.55;;;15.13;;
75892;SDS011;64572;50.950;3.676;2022-12-18T16:42:06;50.80;;;21.65;;
75892;SDS011;64572;50.950;3.676;2022-12-18T16:44:39;53.92;;;23.48;;
75892;SDS011;64572;50.950;3.676;2022-12-18T16:47:05;55.72;;;23.40;;